Terminal Aerodrome Forecast
Issued by NWS Charleston, WV

Current Version | Previous Version | Text Only | Print | Product List | Glossary Off
Versions: 1 2 3 4 5 6 7 8 9 10 11 12 13 14 15 16 17 18 19 20 21 22 23

000
FTUS41 KRLX 211123
TAFHTS
TAF
KHTS 211123Z 2112/2212 00000KT 5SM BR SCT200
     FM211230 20002KT P6SM SCT200
     FM211500 23005KT P6SM SCT060
     FM220000 19002KT P6SM SCT200=

USA.gov is the U.S. government's official web portal to all federal, state and local government web resources and services.